PWSweather.com
Personal Weather Stations
Station Observations

ChardChardGB

Lat: 50.877408, Lon: -2.94964741

Elevation: 341

Station Type: WS3083

http://www.merriott-astro.co.uk/weather/index.htm

Latest ConditionsUpdated 3:20:06 PM GMT Friday, Sep 22, 2017
Currently Today's Max Today's Min Today's Average
Temperature 62.2°F16.8°C 64.0°F17.8°C 42.3°F5.7°C 52.8°F11.6°C
Dew Point 52.0°F11.1°C 53.4°F11.9°C 40.7°F4.8°C 46.6°F8.1°C
Winds 11.6 mph S18.7 kmh S 14.9 mph SSE24.0 kmh SSE - 4.8 mph 7.7 kmh
Wind Gusts 15.9 mph25.6 kmh 23.5 mph37.8 kmh - -
Humidity 69% 100% 58% 81%
Pressure 30.34 in1027.4 mb 30.37 in1028.4 mb 30.34 in1027.4 mb -
Precipitation - 0.02 in0.5 mm - -
Hour Temp Dew Point Humidity Winds Wind Gusts Pressure Precip Precip Rate Daily Precip Total
03:20 PM 62.2°F16.8°C 52.0°F11.1°C 69% 11.6 mph S18.7 kmh S 15.9 mph25.6 kmh 30.34 in1027.4 mb 0.00 in0.0 mm 0.00 in0.0 mm 0.02 in0.5 mm
03:10 PM 61.9°F16.6°C 52.0°F11.1°C 70% 11.7 mph S18.8 kmh S 15.9 mph25.6 kmh 30.35 in1027.8 mb 0.00 in0.0 mm 0.00 in0.0 mm 0.02 in0.5 mm
03:00 PM 62.2°F16.8°C 51.2°F10.7°C 67% 13.3 mph SSE21.4 kmh SSE 19.7 mph31.7 kmh 30.35 in1027.8 mb 0.00 in0.0 mm 0.00 in0.0 mm 0.02 in0.5 mm
02:50 PM 62.2°F16.8°C 52.0°F11.1°C 69% 13.6 mph S21.9 kmh S 19.7 mph31.7 kmh 30.35 in1027.8 mb 0.00 in0.0 mm 0.00 in0.0 mm 0.02 in0.5 mm
02:40 PM 62.8°F17.1°C 52.5°F11.4°C 69% 11.4 mph S18.3 kmh S 15.9 mph25.6 kmh 30.35 in1027.8 mb 0.00 in0.0 mm 0.00 in0.0 mm 0.02 in0.5 mm
02:30 PM 61.5°F16.4°C 52.0°F11.1°C 71% 12.4 mph SSW20.0 kmh SSW 19.7 mph31.7 kmh 30.35 in1027.8 mb 0.02 in0.5 mm 0.00 in0.0 mm 0.02 in0.5 mm
02:20 PM 60.8°F16.0°C 51.4°F10.8°C 71% 12.1 mph S19.5 kmh S 15.2 mph24.5 kmh 30.35 in1027.8 mb 0.02 in0.5 mm 0.00 in0.0 mm 0.02 in0.5 mm
02:10 PM 60.4°F15.8°C 51.4°F10.8°C 72% 11.2 mph SW18.0 kmh SW 17.4 mph28.0 kmh 30.35 in1027.8 mb 0.02 in0.5 mm 0.00 in0.0 mm 0.02 in0.5 mm
02:00 PM 60.1°F15.6°C 50.7°F10.4°C 71% 11.9 mph S19.2 kmh S 17.4 mph28.0 kmh 30.35 in1027.8 mb 0.02 in0.5 mm 0.00 in0.0 mm 0.02 in0.5 mm
01:50 PM 60.4°F15.8°C 50.6°F10.3°C 70% 10.8 mph SSW17.4 kmh SSW 19.0 mph30.6 kmh 30.35 in1027.8 mb 0.02 in0.5 mm 0.00 in0.0 mm 0.02 in0.5 mm
01:40 PM 60.6°F15.9°C 50.4°F10.2°C 69% 13.2 mph SSE21.2 kmh SSE 23.5 mph37.8 kmh 30.36 in1028.1 mb 0.02 in0.5 mm 0.12 in3.0 mm 0.02 in0.5 mm
01:30 PM 61.2°F16.2°C 50.9°F10.5°C 69% 10.4 mph SSW16.7 kmh SSW 15.9 mph25.6 kmh 30.35 in1027.8 mb 0.00 in0.0 mm 0.00 in0.0 mm 0.00 in0.0 mm
01:20 PM 61.3°F16.3°C 50.3°F10.2°C 67% 9.6 mph S15.4 kmh S 13.6 mph21.9 kmh 30.35 in1027.8 mb 0.00 in0.0 mm 0.00 in0.0 mm 0.00 in0.0 mm
01:10 PM 62.2°F16.8°C 50.3°F10.2°C 65% 9.5 mph S15.3 kmh S 13.6 mph21.9 kmh 30.35 in1027.8 mb 0.00 in0.0 mm 0.00 in0.0 mm 0.00 in0.0 mm
01:00 PM 61.3°F16.3°C 49.1°F9.5°C 64% 12.4 mph SSW20.0 kmh SSW 14.5 mph23.3 kmh 30.36 in1028.1 mb 0.00 in0.0 mm 0.00 in0.0 mm 0.00 in0.0 mm
12:50 PM 62.1°F16.7°C 49.8°F9.9°C 64% 9.3 mph S15.0 kmh S 15.2 mph24.5 kmh 30.36 in1028.1 mb 0.00 in0.0 mm 0.00 in0.0 mm 0.00 in0.0 mm
12:40 PM 61.9°F16.6°C 49.2°F9.6°C 63% 9.8 mph S15.8 kmh S 14.5 mph23.3 kmh 30.36 in1028.1 mb 0.00 in0.0 mm 0.00 in0.0 mm 0.00 in0.0 mm
12:30 PM 63.9°F17.7°C 49.7°F9.8°C 60% 10.6 mph S17.1 kmh S 14.5 mph23.3 kmh 30.36 in1028.1 mb 0.00 in0.0 mm 0.00 in0.0 mm 0.00 in0.0 mm
12:20 PM 61.9°F16.6°C 49.2°F9.6°C 63% 12.4 mph S20.0 kmh S 18.3 mph29.5 kmh 30.35 in1027.8 mb 0.00 in0.0 mm 0.00 in0.0 mm 0.00 in0.0 mm
12:10 PM 64.0°F17.8°C 49.4°F9.7°C 59% 11.6 mph S18.7 kmh S 16.8 mph27.0 kmh 30.36 in1028.1 mb 0.00 in0.0 mm 0.00 in0.0 mm 0.00 in0.0 mm
12:00 PM 64.0°F17.8°C 49.0°F9.4°C 58% 10.6 mph S17.1 kmh S 17.4 mph28.0 kmh 30.36 in1028.1 mb 0.00 in0.0 mm 0.00 in0.0 mm 0.00 in0.0 mm
11:50 AM 63.1°F17.3°C 49.9°F9.9°C 62% 13.0 mph S20.9 kmh S 18.3 mph29.5 kmh 30.36 in1028.1 mb 0.00 in0.0 mm 0.00 in0.0 mm 0.00 in0.0 mm
11:40 AM 62.8°F17.1°C 49.1°F9.5°C 61% 14.9 mph SSE24.0 kmh SSE 16.8 mph27.0 kmh 30.36 in1028.1 mb 0.00 in0.0 mm 0.00 in0.0 mm 0.00 in0.0 mm
11:30 AM 61.7°F16.5°C 49.0°F9.4°C 63% 11.6 mph SSW18.7 kmh SSW 15.9 mph25.6 kmh 30.35 in1027.8 mb 0.00 in0.0 mm 0.00 in0.0 mm 0.00 in0.0 mm
11:20 AM 60.8°F16.0°C 48.1°F8.9°C 63% 13.8 mph S22.2 kmh S 22.8 mph36.7 kmh 30.35 in1027.8 mb 0.00 in0.0 mm 0.00 in0.0 mm 0.00 in0.0 mm
11:10 AM 61.0°F16.1°C 48.3°F9.1°C 63% 10.5 mph SSE16.9 kmh SSE 18.3 mph29.5 kmh 30.35 in1027.8 mb 0.00 in0.0 mm 0.00 in0.0 mm 0.00 in0.0 mm
11:00 AM 61.9°F16.6°C 49.2°F9.6°C 63% 10.3 mph SSE16.6 kmh SSE 15.9 mph25.6 kmh 30.36 in1028.1 mb 0.00 in0.0 mm 0.00 in0.0 mm 0.00 in0.0 mm
10:50 AM 63.0°F17.2°C 48.9°F9.4°C 60% 9.2 mph SSW14.8 kmh SSW 13.0 mph20.9 kmh 30.36 in1028.1 mb 0.00 in0.0 mm 0.00 in0.0 mm 0.00 in0.0 mm
10:40 AM 62.6°F17.0°C 49.0°F9.4°C 61% 6.4 mph SSW10.3 kmh SSW 12.1 mph19.5 kmh 30.37 in1028.4 mb 0.00 in0.0 mm 0.00 in0.0 mm 0.00 in0.0 mm
10:30 AM 63.0°F17.2°C 49.3°F9.6°C 61% 7.7 mph S12.4 kmh S 12.1 mph19.5 kmh 30.37 in1028.4 mb 0.00 in0.0 mm 0.00 in0.0 mm 0.00 in0.0 mm
10:20 AM 62.4°F16.9°C 49.7°F9.8°C 63% 4.8 mph SW7.7 kmh SW 9.2 mph14.8 kmh 30.37 in1028.4 mb 0.00 in0.0 mm 0.00 in0.0 mm 0.00 in0.0 mm
10:10 AM 60.4°F15.8°C 48.6°F9.2°C 65% 4.7 mph S7.6 kmh S 6.9 mph11.1 kmh 30.36 in1028.1 mb 0.00 in0.0 mm 0.00 in0.0 mm 0.00 in0.0 mm
10:00 AM 61.5°F16.4°C 49.2°F9.6°C 64% 6.6 mph S10.6 kmh S 11.4 mph18.3 kmh 30.36 in1028.1 mb 0.00 in0.0 mm 0.00 in0.0 mm 0.00 in0.0 mm
09:50 AM 62.8°F17.1°C 50.9°F10.5°C 65% 9.3 mph SSE15.0 kmh SSE 12.1 mph19.5 kmh 30.37 in1028.4 mb 0.00 in0.0 mm 0.00 in0.0 mm 0.00 in0.0 mm
09:40 AM 62.8°F17.1°C 50.4°F10.2°C 64% 8.0 mph S12.9 kmh S 12.1 mph19.5 kmh 30.37 in1028.4 mb 0.00 in0.0 mm 0.00 in0.0 mm 0.00 in0.0 mm
09:30 AM 62.4°F16.9°C 50.5°F10.3°C 65% 6.8 mph S10.9 kmh S 13.0 mph20.9 kmh 30.37 in1028.4 mb 0.00 in0.0 mm 0.00 in0.0 mm 0.00 in0.0 mm
09:20 AM 62.2°F16.8°C 52.0°F11.1°C 69% 7.0 mph S11.3 kmh S 9.8 mph15.8 kmh 30.36 in1028.1 mb 0.00 in0.0 mm 0.00 in0.0 mm 0.00 in0.0 mm
09:10 AM 62.2°F16.8°C 52.3°F11.3°C 70% 6.6 mph SSE10.6 kmh SSE 9.8 mph15.8 kmh 30.37 in1028.4 mb 0.00 in0.0 mm 0.00 in0.0 mm 0.00 in0.0 mm
09:00 AM 61.9°F16.6°C 52.0°F11.1°C 70% 5.0 mph SSE8.0 kmh SSE 8.3 mph13.4 kmh 30.37 in1028.4 mb 0.00 in0.0 mm 0.00 in0.0 mm 0.00 in0.0 mm
08:50 AM 62.1°F16.7°C 52.2°F11.2°C 70% 3.1 mph SE5.0 kmh SE 4.5 mph7.2 kmh 30.37 in1028.4 mb 0.00 in0.0 mm 0.00 in0.0 mm 0.00 in0.0 mm
08:40 AM 60.8°F16.0°C 51.7°F10.9°C 72% 3.0 mph S4.8 kmh S 4.5 mph7.2 kmh 30.37 in1028.4 mb 0.00 in0.0 mm 0.00 in0.0 mm 0.00 in0.0 mm
08:30 AM 59.9°F15.5°C 50.5°F10.3°C 71% 2.6 mph S4.2 kmh S 5.4 mph8.7 kmh 30.36 in1028.1 mb 0.00 in0.0 mm 0.00 in0.0 mm 0.00 in0.0 mm
08:00 AM 58.5°F14.7°C 52.0°F11.1°C 79% 1.0 mph NE1.6 kmh NE 3.1 mph5.0 kmh 30.36 in1028.1 mb 0.00 in0.0 mm 0.00 in0.0 mm 0.00 in0.0 mm
07:50 AM 57.9°F14.4°C 53.4°F11.9°C 85% Calm Calm 0.7 mph1.1 kmh 30.37 in1028.4 mb 0.00 in0.0 mm 0.00 in0.0 mm 0.00 in0.0 mm
07:40 AM 56.8°F13.8°C 53.0°F11.7°C 87% Calm Calm -- 30.37 in1028.4 mb 0.00 in0.0 mm 0.00 in0.0 mm 0.00 in0.0 mm
07:30 AM 54.7°F12.6°C 51.8°F11.0°C 90% Calm Calm -- 30.37 in1028.4 mb 0.00 in0.0 mm 0.00 in0.0 mm 0.00 in0.0 mm
07:20 AM 52.0°F11.1°C 50.3°F10.2°C 94% Calm Calm -- 30.37 in1028.4 mb 0.00 in0.0 mm 0.00 in0.0 mm 0.00 in0.0 mm
07:10 AM 47.8°F8.8°C 46.2°F7.9°C 94% 1.4 mph S2.3 kmh S 3.8 mph6.1 kmh 30.37 in1028.4 mb 0.00 in0.0 mm 0.00 in0.0 mm 0.00 in0.0 mm
07:00 AM 45.5°F7.5°C 43.6°F6.4°C 93% Calm Calm -- 30.36 in1028.1 mb 0.00 in0.0 mm 0.00 in0.0 mm 0.00 in0.0 mm
06:50 AM 45.1°F7.3°C 45.1°F7.3°C 100% Calm Calm -- 30.36 in1028.1 mb 0.00 in0.0 mm 0.00 in0.0 mm 0.00 in0.0 mm
06:40 AM 44.6°F7.0°C 43.8°F6.6°C 97% Calm Calm -- 30.37 in1028.4 mb 0.00 in0.0 mm 0.00 in0.0 mm 0.00 in0.0 mm
06:30 AM 43.9°F6.6°C 43.1°F6.2°C 97% Calm Calm -- 30.36 in1028.1 mb 0.00 in0.0 mm 0.00 in0.0 mm 0.00 in0.0 mm
06:20 AM 43.7°F6.5°C 42.9°F6.1°C 97% Calm Calm -- 30.35 in1027.8 mb 0.00 in0.0 mm 0.00 in0.0 mm 0.00 in0.0 mm
06:10 AM 43.2°F6.2°C 42.4°F5.8°C 97% Calm Calm -- 30.35 in1027.8 mb 0.00 in0.0 mm 0.00 in0.0 mm 0.00 in0.0 mm
06:00 AM 42.8°F6.0°C 41.7°F5.4°C 96% Calm Calm -- 30.35 in1027.8 mb 0.00 in0.0 mm 0.00 in0.0 mm 0.00 in0.0 mm
05:50 AM 42.8°F6.0°C 41.7°F5.4°C 96% Calm Calm -- 30.35 in1027.8 mb 0.00 in0.0 mm 0.00 in0.0 mm 0.00 in0.0 mm
05:40 AM 42.6°F5.9°C 41.6°F5.3°C 96% Calm Calm -- 30.35 in1027.8 mb 0.00 in0.0 mm 0.00 in0.0 mm 0.00 in0.0 mm
05:30 AM 43.2°F6.2°C 42.1°F5.6°C 96% Calm Calm -- 30.35 in1027.8 mb 0.00 in0.0 mm 0.00 in0.0 mm 0.00 in0.0 mm
05:20 AM 43.3°F6.3°C 42.3°F5.7°C 96% Calm Calm -- 30.35 in1027.8 mb 0.00 in0.0 mm 0.00 in0.0 mm 0.00 in0.0 mm
05:10 AM 43.5°F6.4°C 42.5°F5.8°C 96% Calm Calm -- 30.35 in1027.8 mb 0.00 in0.0 mm 0.00 in0.0 mm 0.00 in0.0 mm
05:00 AM 44.1°F6.7°C 43.3°F6.3°C 97% Calm Calm -- 30.35 in1027.8 mb 0.00 in0.0 mm 0.00 in0.0 mm 0.00 in0.0 mm
04:50 AM 43.3°F6.3°C 42.3°F5.7°C 96% Calm Calm -- 30.35 in1027.8 mb 0.00 in0.0 mm 0.00 in0.0 mm 0.00 in0.0 mm
04:40 AM 43.5°F6.4°C 42.5°F5.8°C 96% Calm Calm -- 30.35 in1027.8 mb 0.00 in0.0 mm 0.00 in0.0 mm 0.00 in0.0 mm
04:30 AM 43.2°F6.2°C 42.1°F5.6°C 96% Calm Calm -- 30.35 in1027.8 mb 0.00 in0.0 mm 0.00 in0.0 mm 0.00 in0.0 mm
04:20 AM 43.3°F6.3°C 42.3°F5.7°C 96% 0.2 mph S0.3 kmh S 2.2 mph3.5 kmh 30.36 in1028.1 mb 0.00 in0.0 mm 0.00 in0.0 mm 0.00 in0.0 mm
04:10 AM 43.2°F6.2°C 42.1°F5.6°C 96% 2.2 mph S3.5 kmh S 3.8 mph6.1 kmh 30.35 in1027.8 mb 0.00 in0.0 mm 0.00 in0.0 mm 0.00 in0.0 mm
04:00 AM 42.8°F6.0°C 41.5°F5.3°C 95% 2.8 mph SE4.5 kmh SE 4.5 mph7.2 kmh 30.35 in1027.8 mb 0.00 in0.0 mm 0.00 in0.0 mm 0.00 in0.0 mm
03:50 AM 42.8°F6.0°C 41.5°F5.3°C 95% 1.6 mph SSE2.6 kmh SSE 5.4 mph8.7 kmh 30.35 in1027.8 mb 0.00 in0.0 mm 0.00 in0.0 mm 0.00 in0.0 mm
03:40 AM 42.3°F5.7°C 40.9°F4.9°C 95% Calm Calm -- 30.35 in1027.8 mb 0.00 in0.0 mm 0.00 in0.0 mm 0.00 in0.0 mm
03:30 AM 42.3°F5.7°C 40.7°F4.8°C 94% 1.1 mph SSW1.8 kmh SSW 3.8 mph6.1 kmh 30.36 in1028.1 mb 0.00 in0.0 mm 0.00 in0.0 mm 0.00 in0.0 mm
03:20 AM 42.3°F5.7°C 40.7°F4.8°C 94% 0.1 mph S0.2 kmh S 3.8 mph6.1 kmh 30.35 in1027.8 mb 0.00 in0.0 mm 0.00 in0.0 mm 0.00 in0.0 mm
03:10 AM 42.4°F5.8°C 40.8°F4.9°C 94% 1.2 mph SSE1.9 kmh SSE 4.5 mph7.2 kmh 30.35 in1027.8 mb 0.00 in0.0 mm 0.00 in0.0 mm 0.00 in0.0 mm
03:00 AM 42.8°F6.0°C 41.2°F5.1°C 94% 3.7 mph S6.0 kmh S 5.4 mph8.7 kmh 30.36 in1028.1 mb 0.00 in0.0 mm 0.00 in0.0 mm 0.00 in0.0 mm
02:50 AM 43.2°F6.2°C 41.6°F5.3°C 94% 2.1 mph S3.4 kmh S 4.5 mph7.2 kmh 30.35 in1027.8 mb 0.00 in0.0 mm 0.00 in0.0 mm 0.00 in0.0 mm
02:40 AM 43.2°F6.2°C 41.6°F5.3°C 94% 2.0 mph SE3.2 kmh SE 4.5 mph7.2 kmh 30.35 in1027.8 mb 0.00 in0.0 mm 0.00 in0.0 mm 0.00 in0.0 mm
02:30 AM 43.3°F6.3°C 41.7°F5.4°C 94% 2.2 mph SSE3.5 kmh SSE 3.8 mph6.1 kmh 30.36 in1028.1 mb 0.00 in0.0 mm 0.00 in0.0 mm 0.00 in0.0 mm
02:20 AM 43.2°F6.2°C 41.6°F5.3°C 94% Calm Calm -- 30.36 in1028.1 mb 0.00 in0.0 mm 0.00 in0.0 mm 0.00 in0.0 mm
02:10 AM 43.3°F6.3°C 41.7°F5.4°C 94% 0.4 mph SW0.6 kmh SW 1.6 mph2.6 kmh 30.35 in1027.8 mb 0.00 in0.0 mm 0.00 in0.0 mm 0.00 in0.0 mm
02:00 AM 43.7°F6.5°C 42.1°F5.6°C 94% 1.3 mph SSW2.1 kmh SSW 5.4 mph8.7 kmh 30.36 in1028.1 mb 0.00 in0.0 mm 0.00 in0.0 mm 0.00 in0.0 mm
01:50 AM 44.1°F6.7°C 42.4°F5.8°C 94% 0.8 mph SSE1.3 kmh SSE 3.1 mph5.0 kmh 30.36 in1028.1 mb 0.00 in0.0 mm 0.00 in0.0 mm 0.00 in0.0 mm
01:40 AM 44.1°F6.7°C 42.4°F5.8°C 94% 1.1 mph S1.8 kmh S 3.8 mph6.1 kmh 30.35 in1027.8 mb 0.00 in0.0 mm 0.00 in0.0 mm 0.00 in0.0 mm
01:30 AM 44.2°F6.8°C 42.6°F5.9°C 94% Calm Calm -- 30.35 in1027.8 mb 0.00 in0.0 mm 0.00 in0.0 mm 0.00 in0.0 mm
01:20 AM 44.4°F6.9°C 42.8°F6.0°C 94% Calm Calm -- 30.35 in1027.8 mb 0.00 in0.0 mm 0.00 in0.0 mm 0.00 in0.0 mm
01:10 AM 44.4°F6.9°C 42.8°F6.0°C 94% 0.3 mph S0.5 kmh S 2.2 mph3.5 kmh 30.35 in1027.8 mb 0.00 in0.0 mm 0.00 in0.0 mm 0.00 in0.0 mm
01:00 AM 44.6°F7.0°C 43.0°F6.1°C 94% 1.6 mph SSE2.6 kmh SSE 3.1 mph5.0 kmh 30.35 in1027.8 mb 0.00 in0.0 mm 0.00 in0.0 mm 0.00 in0.0 mm
12:50 AM 44.6°F7.0°C 43.0°F6.1°C 94% 1.4 mph SSE2.3 kmh SSE 3.1 mph5.0 kmh 30.36 in1028.1 mb 0.00 in0.0 mm 0.00 in0.0 mm 0.00 in0.0 mm
12:40 AM 44.6°F7.0°C 42.7°F5.9°C 93% 1.1 mph S1.8 kmh S 3.1 mph5.0 kmh 30.36 in1028.1 mb 0.00 in0.0 mm 0.00 in0.0 mm 0.00 in0.0 mm
12:30 AM 44.4°F6.9°C 42.5°F5.8°C 93% 0.4 mph S0.6 kmh S 2.2 mph3.5 kmh 30.36 in1028.1 mb 0.00 in0.0 mm 0.00 in0.0 mm 0.00 in0.0 mm
12:20 AM 44.4°F6.9°C 42.5°F5.8°C 93% 1.6 mph S2.6 kmh S 3.8 mph6.1 kmh 30.36 in1028.1 mb 0.00 in0.0 mm 0.00 in0.0 mm 0.00 in0.0 mm
12:10 AM 44.4°F6.9°C 42.2°F5.7°C 92% 1.9 mph SSE3.1 kmh SSE 3.8 mph6.1 kmh 30.35 in1027.8 mb 0.00 in0.0 mm 0.00 in0.0 mm 0.00 in0.0 mm
12:00 AM 44.6°F7.0°C 42.4°F5.8°C 92% 0.1 mph S0.2 kmh S 3.1 mph5.0 kmh 30.36 in1028.1 mb 0.00 in0.0 mm 0.00 in0.0 mm 0.00 in0.0 mm